sensor_id;sensor_type;location;lat;lon;timestamp;temperature;humidity
46335;DHT22;32051;48.882;9.210;2023-04-01T00:00:32;9.00;99.90
46335;DHT22;32051;48.882;9.210;2023-04-01T00:02:58;9.10;99.90
46335;DHT22;32051;48.882;9.210;2023-04-01T00:05:23;9.10;99.90
46335;DHT22;32051;48.882;9.210;2023-04-01T00:07:52;9.10;99.90
46335;DHT22;32051;48.882;9.210;2023-04-01T00:10:18;9.10;99.90
46335;DHT22;32051;48.882;9.210;2023-04-01T00:12:46;9.10;99.90
46335;DHT22;32051;48.882;9.210;2023-04-01T00:15:12;9.20;99.90
46335;DHT22;32051;48.882;9.210;2023-04-01T00:17:38;9.20;99.90
46335;DHT22;32051;48.882;9.210;2023-04-01T00:20:05;9.20;99.90
46335;DHT22;32051;48.882;9.210;2023-04-01T00:22:34;9.20;99.90
46335;DHT22;32051;48.882;9.210;2023-04-01T00:25:01;9.20;99.90
46335;DHT22;32051;48.882;9.210;2023-04-01T00:27:26;9.30;99.90
46335;DHT22;32051;48.882;9.210;2023-04-01T00:29:52;9.30;99.90
46335;DHT22;32051;48.882;9.210;2023-04-01T00:32:17;9.30;99.90
46335;DHT22;32051;48.882;9.210;2023-04-01T00:34:43;9.20;99.90
46335;DHT22;32051;48.882;9.210;2023-04-01T00:37:10;9.10;99.90
46335;DHT22;32051;48.882;9.210;2023-04-01T00:39:36;9.10;99.90
46335;DHT22;32051;48.882;9.210;2023-04-01T00:42:05;9.10;99.90
46335;DHT22;32051;48.882;9.210;2023-04-01T00:44:33;9.10;99.90
46335;DHT22;32051;48.882;9.210;2023-04-01T00:47:00;9.10;99.90
46335;DHT22;32051;48.882;9.210;2023-04-01T00:49:46;9.10;99.90
46335;DHT22;32051;48.882;9.210;2023-04-01T00:52:17;9.20;99.90
46335;DHT22;32051;48.882;9.210;2023-04-01T00:54:46;9.10;99.90
46335;DHT22;32051;48.882;9.210;2023-04-01T00:57:17;9.20;99.90
46335;DHT22;32051;48.882;9.210;2023-04-01T00:59:48;9.30;99.90
46335;DHT22;32051;48.882;9.210;2023-04-01T01:02:18;9.30;99.90
46335;DHT22;32051;48.882;9.210;2023-04-01T01:04:44;9.30;99.90
46335;DHT22;32051;48.882;9.210;2023-04-01T01:15:04;9.40;99.90
46335;DHT22;32051;48.882;9.210;2023-04-01T01:17:57;9.40;99.90
46335;DHT22;32051;48.882;9.210;2023-04-01T01:20:32;9.40;99.90
46335;DHT22;32051;48.882;9.210;2023-04-01T01:26:19;9.50;99.90
46335;DHT22;32051;48.882;9.210;2023-04-01T01:34:29;9.50;99.90
46335;DHT22;32051;48.882;9.210;2023-04-01T01:37:02;9.50;99.90
46335;DHT22;32051;48.882;9.210;2023-04-01T01:39:31;9.50;99.90
46335;DHT22;32051;48.882;9.210;2023-04-01T01:42:03;9.50;99.90
46335;DHT22;32051;48.882;9.210;2023-04-01T01:44:31;9.50;99.90
46335;DHT22;32051;48.882;9.210;2023-04-01T01:46:57;9.50;99.90
46335;DHT22;32051;48.882;9.210;2023-04-01T01:49:24;9.40;99.90
46335;DHT22;32051;48.882;9.210;2023-04-01T01:51:50;9.50;99.90
46335;DHT22;32051;48.882;9.210;2023-04-01T01:54:17;9.40;99.90
46335;DHT22;32051;48.882;9.210;2023-04-01T01:56:48;9.50;99.90
46335;DHT22;32051;48.882;9.210;2023-04-01T02:01:48;9.40;99.90
46335;DHT22;32051;48.882;9.210;2023-04-01T02:04:17;9.30;99.90
46335;DHT22;32051;48.882;9.210;2023-04-01T02:07:00;9.30;99.90
46335;DHT22;32051;48.882;9.210;2023-04-01T02:09:27;9.20;99.90
46335;DHT22;32051;48.882;9.210;2023-04-01T02:11:59;9.20;99.90
46335;DHT22;32051;48.882;9.210;2023-04-01T02:14:29;9.20;99.90
46335;DHT22;32051;48.882;9.210;2023-04-01T02:19:39;9.20;99.90
46335;DHT22;32051;48.882;9.210;2023-04-01T02:22:10;9.20;99.90
46335;DHT22;32051;48.882;9.210;2023-04-01T02:24:38;9.10;99.90
46335;DHT22;32051;48.882;9.210;2023-04-01T02:27:05;9.10;99.90
46335;DHT22;32051;48.882;9.210;2023-04-01T02:29:34;9.10;99.90
46335;DHT22;32051;48.882;9.210;2023-04-01T02:32:00;9.10;99.90
46335;DHT22;32051;48.882;9.210;2023-04-01T02:34:26;9.10;99.90
46335;DHT22;32051;48.882;9.210;2023-04-01T02:36:52;9.00;99.90
46335;DHT22;32051;48.882;9.210;2023-04-01T02:39:19;9.10;99.90
46335;DHT22;32051;48.882;9.210;2023-04-01T02:41:48;9.00;99.90
46335;DHT22;32051;48.882;9.210;2023-04-01T02:44:15;9.00;99.90
46335;DHT22;32051;48.882;9.210;2023-04-01T02:46:42;9.00;99.90
46335;DHT22;32051;48.882;9.210;2023-04-01T02:49:07;9.00;99.90
46335;DHT22;32051;48.882;9.210;2023-04-01T02:51:34;9.00;99.90
46335;DHT22;32051;48.882;9.210;2023-04-01T02:54:00;9.00;99.90
46335;DHT22;32051;48.882;9.210;2023-04-01T02:56:26;9.00;99.90
46335;DHT22;32051;48.882;9.210;2023-04-01T02:58:52;8.90;99.90
46335;DHT22;32051;48.882;9.210;2023-04-01T03:01:18;8.90;99.90
46335;DHT22;32051;48.882;9.210;2023-04-01T03:03:44;8.90;99.90
46335;DHT22;32051;48.882;9.210;2023-04-01T03:06:15;8.90;99.90
46335;DHT22;32051;48.882;9.210;2023-04-01T03:08:44;8.90;99.90
46335;DHT22;32051;48.882;9.210;2023-04-01T03:11:10;8.80;99.90
46335;DHT22;32051;48.882;9.210;2023-04-01T03:13:36;8.80;99.90
46335;DHT22;32051;48.882;9.210;2023-04-01T03:16:03;8.80;99.90
46335;DHT22;32051;48.882;9.210;2023-04-01T03:18:29;8.80;99.90
46335;DHT22;32051;48.882;9.210;2023-04-01T03:20:55;8.80;99.90
46335;DHT22;32051;48.882;9.210;2023-04-01T03:23:21;8.80;99.90
46335;DHT22;32051;48.882;9.210;2023-04-01T03:25:47;8.80;99.90
46335;DHT22;32051;48.882;9.210;2023-04-01T03:28:14;8.80;99.90
46335;DHT22;32051;48.882;9.210;2023-04-01T03:30:40;8.80;99.90
46335;DHT22;32051;48.882;9.210;2023-04-01T03:33:06;8.80;99.90
46335;DHT22;32051;48.882;9.210;2023-04-01T03:35:32;8.70;99.90
46335;DHT22;32051;48.882;9.210;2023-04-01T03:37:58;8.60;99.90
46335;DHT22;32051;48.882;9.210;2023-04-01T03:40:24;8.60;99.90
46335;DHT22;32051;48.882;9.210;2023-04-01T03:42:52;8.50;99.90
46335;DHT22;32051;48.882;9.210;2023-04-01T03:45:18;8.50;99.90
46335;DHT22;32051;48.882;9.210;2023-04-01T03:47:44;8.50;99.90
46335;DHT22;32051;48.882;9.210;2023-04-01T03:50:10;8.40;99.90
46335;DHT22;32051;48.882;9.210;2023-04-01T03:52:36;8.50;99.90
46335;DHT22;32051;48.882;9.210;2023-04-01T03:55:02;8.50;99.90
46335;DHT22;32051;48.882;9.210;2023-04-01T03:57:30;8.50;99.90
46335;DHT22;32051;48.882;9.210;2023-04-01T03:59:59;8.50;99.90
46335;DHT22;32051;48.882;9.210;2023-04-01T04:02:26;8.50;99.90
46335;DHT22;32051;48.882;9.210;2023-04-01T04:04:51;8.50;99.90
46335;DHT22;32051;48.882;9.210;2023-04-01T04:07:17;8.50;99.90
46335;DHT22;32051;48.882;9.210;2023-04-01T04:10:06;8.50;99.90
46335;DHT22;32051;48.882;9.210;2023-04-01T04:12:32;8.50;99.90
46335;DHT22;32051;48.882;9.210;2023-04-01T04:14:58;8.50;99.90
46335;DHT22;32051;48.882;9.210;2023-04-01T04:17:24;8.50;99.90
46335;DHT22;32051;48.882;9.210;2023-04-01T04:19:50;8.50;99.90
46335;DHT22;32051;48.882;9.210;2023-04-01T04:22:16;8.50;99.90
46335;DHT22;32051;48.882;9.210;2023-04-01T04:24:42;8.50;99.90
46335;DHT22;32051;48.882;9.210;2023-04-01T04:27:11;8.60;99.90
46335;DHT22;32051;48.882;9.210;2023-04-01T04:29:45;8.60;99.90
46335;DHT22;32051;48.882;9.210;2023-04-01T04:32:10;8.70;99.90
46335;DHT22;32051;48.882;9.210;2023-04-01T04:34:37;8.70;99.90
46335;DHT22;32051;48.882;9.210;2023-04-01T04:37:02;8.70;99.90
46335;DHT22;32051;48.882;9.210;2023-04-01T04:39:32;8.70;99.90
46335;DHT22;32051;48.882;9.210;2023-04-01T04:41:58;8.70;99.90
46335;DHT22;32051;48.882;9.210;2023-04-01T04:44:24;8.70;99.90
46335;DHT22;32051;48.882;9.210;2023-04-01T04:46:49;8.80;99.90
46335;DHT22;32051;48.882;9.210;2023-04-01T04:49:16;8.80;99.90
46335;DHT22;32051;48.882;9.210;2023-04-01T04:51:42;8.80;99.90
46335;DHT22;32051;48.882;9.210;2023-04-01T04:54:08;8.80;99.90
46335;DHT22;32051;48.882;9.210;2023-04-01T04:56:53;8.80;99.90
46335;DHT22;32051;48.882;9.210;2023-04-01T04:59:23;8.80;99.90
46335;DHT22;32051;48.882;9.210;2023-04-01T05:02:03;8.70;99.90
46335;DHT22;32051;48.882;9.210;2023-04-01T05:04:29;8.70;99.90
46335;DHT22;32051;48.882;9.210;2023-04-01T05:06:55;8.70;99.90
46335;DHT22;32051;48.882;9.210;2023-04-01T05:09:22;8.70;99.90
46335;DHT22;32051;48.882;9.210;2023-04-01T05:11:48;8.70;99.90
46335;DHT22;32051;48.882;9.210;2023-04-01T05:14:18;8.60;99.90
46335;DHT22;32051;48.882;9.210;2023-04-01T05:16:52;8.70;99.90
46335;DHT22;32051;48.882;9.210;2023-04-01T05:19:19;8.60;99.90
46335;DHT22;32051;48.882;9.210;2023-04-01T05:21:48;8.60;99.90
46335;DHT22;32051;48.882;9.210;2023-04-01T05:24:16;8.60;99.90
46335;DHT22;32051;48.882;9.210;2023-04-01T05:26:43;8.60;99.90
46335;DHT22;32051;48.882;9.210;2023-04-01T05:29:10;8.60;99.90
46335;DHT22;32051;48.882;9.210;2023-04-01T05:31:35;8.60;99.90
46335;DHT22;32051;48.882;9.210;2023-04-01T05:34:03;8.60;99.90
46335;DHT22;32051;48.882;9.210;2023-04-01T05:36:31;8.60;99.90
46335;DHT22;32051;48.882;9.210;2023-04-01T05:38:57;8.60;99.90
46335;DHT22;32051;48.882;9.210;2023-04-01T05:41:25;8.60;99.90
46335;DHT22;32051;48.882;9.210;2023-04-01T05:43:51;8.60;99.90
46335;DHT22;32051;48.882;9.210;2023-04-01T05:46:35;8.60;99.90
46335;DHT22;32051;48.882;9.210;2023-04-01T05:49:21;8.60;99.90
46335;DHT22;32051;48.882;9.210;2023-04-01T05:51:48;8.60;99.90
46335;DHT22;32051;48.882;9.210;2023-04-01T05:54:17;8.60;99.90
46335;DHT22;32051;48.882;9.210;2023-04-01T05:56:44;8.70;99.90
46335;DHT22;32051;48.882;9.210;2023-04-01T05:59:10;8.70;99.90
46335;DHT22;32051;48.882;9.210;2023-04-01T06:01:39;8.80;99.90
46335;DHT22;32051;48.882;9.210;2023-04-01T06:04:05;8.80;99.90
46335;DHT22;32051;48.882;9.210;2023-04-01T06:06:32;8.90;99.90
46335;DHT22;32051;48.882;9.210;2023-04-01T06:09:15;8.90;99.90
46335;DHT22;32051;48.882;9.210;2023-04-01T06:11:55;9.10;99.90
46335;DHT22;32051;48.882;9.210;2023-04-01T06:23:29;9.60;99.90
46335;DHT22;32051;48.882;9.210;2023-04-01T06:26:25;9.60;99.90
46335;DHT22;32051;48.882;9.210;2023-04-01T06:54:34;9.80;99.90
46335;DHT22;32051;48.882;9.210;2023-04-01T06:57:34;9.80;99.90
46335;DHT22;32051;48.882;9.210;2023-04-01T07:00:18;9.80;99.90
46335;DHT22;32051;48.882;9.210;2023-04-01T07:02:54;9.90;99.90
46335;DHT22;32051;48.882;9.210;2023-04-01T07:05:24;9.90;99.90
46335;DHT22;32051;48.882;9.210;2023-04-01T07:07:53;9.90;99.90
46335;DHT22;32051;48.882;9.210;2023-04-01T07:13:54;9.90;99.90
46335;DHT22;32051;48.882;9.210;2023-04-01T07:16:39;10.00;99.90
46335;DHT22;32051;48.882;9.210;2023-04-01T07:19:22;10.00;99.90
46335;DHT22;32051;48.882;9.210;2023-04-01T07:22:01;10.00;99.90
46335;DHT22;32051;48.882;9.210;2023-04-01T07:24:44;10.00;99.90
46335;DHT22;32051;48.882;9.210;2023-04-01T07:27:13;10.00;99.90
46335;DHT22;32051;48.882;9.210;2023-04-01T07:29:40;10.00;99.90
46335;DHT22;32051;48.882;9.210;2023-04-01T07:37:31;10.00;99.90
46335;DHT22;32051;48.882;9.210;2023-04-01T07:40:12;10.00;99.90
46335;DHT22;32051;48.882;9.210;2023-04-01T07:48:15;10.00;99.90
46335;DHT22;32051;48.882;9.210;2023-04-01T07:50:49;10.00;99.90
46335;DHT22;32051;48.882;9.210;2023-04-01T07:59:09;10.10;99.90
46335;DHT22;32051;48.882;9.210;2023-04-01T08:10:48;10.30;99.90
46335;DHT22;32051;48.882;9.210;2023-04-01T08:22:49;10.50;99.90
46335;DHT22;32051;48.882;9.210;2023-04-01T08:25:25;10.50;99.90
46335;DHT22;32051;48.882;9.210;2023-04-01T08:27:59;10.50;99.90
46335;DHT22;32051;48.882;9.210;2023-04-01T08:33:15;10.50;99.90
46335;DHT22;32051;48.882;9.210;2023-04-01T08:38:40;10.50;99.90
46335;DHT22;32051;48.882;9.210;2023-04-01T08:44:20;10.30;99.90
46335;DHT22;32051;48.882;9.210;2023-04-01T08:52:34;9.60;99.90
46335;DHT22;32051;48.882;9.210;2023-04-01T09:01:15;9.30;99.90
46335;DHT22;32051;48.882;9.210;2023-04-01T09:07:02;9.10;99.90
46335;DHT22;32051;48.882;9.210;2023-04-01T09:09:54;9.20;99.90
46335;DHT22;32051;48.882;9.210;2023-04-01T09:17:39;9.30;99.90
46335;DHT22;32051;48.882;9.210;2023-04-01T09:20:33;9.40;99.90
46335;DHT22;32051;48.882;9.210;2023-04-01T09:31:52;10.00;99.90
46335;DHT22;32051;48.882;9.210;2023-04-01T09:46:00;10.50;99.90
46335;DHT22;32051;48.882;9.210;2023-04-01T09:51:26;10.40;99.90
46335;DHT22;32051;48.882;9.210;2023-04-01T10:05:46;10.50;99.90
46335;DHT22;32051;48.882;9.210;2023-04-01T10:08:50;10.50;99.90
46335;DHT22;32051;48.882;9.210;2023-04-01T11:16:27;10.90;99.90
46335;DHT22;32051;48.882;9.210;2023-04-01T11:25:08;10.90;99.90
46335;DHT22;32051;48.882;9.210;2023-04-01T11:34:02;11.10;99.90
46335;DHT22;32051;48.882;9.210;2023-04-01T11:39:38;11.30;99.90
46335;DHT22;32051;48.882;9.210;2023-04-01T11:42:49;11.40;99.90
46335;DHT22;32051;48.882;9.210;2023-04-01T12:11:12;11.40;99.90
46335;DHT22;32051;48.882;9.210;2023-04-01T12:14:06;11.30;99.90
46335;DHT22;32051;48.882;9.210;2023-04-01T12:17:07;10.80;99.90
46335;DHT22;32051;48.882;9.210;2023-04-01T12:19:51;11.20;99.90
46335;DHT22;32051;48.882;9.210;2023-04-01T12:40:02;11.70;99.90
46335;DHT22;32051;48.882;9.210;2023-04-01T12:42:40;11.70;99.90
46335;DHT22;32051;48.882;9.210;2023-04-01T12:45:34;11.70;99.90
46335;DHT22;32051;48.882;9.210;2023-04-01T13:07:19;11.70;99.90
46335;DHT22;32051;48.882;9.210;2023-04-01T13:26:08;11.10;99.90
46335;DHT22;32051;48.882;9.210;2023-04-01T13:28:55;10.80;99.90
46335;DHT22;32051;48.882;9.210;2023-04-01T13:32:00;10.70;99.90
46335;DHT22;32051;48.882;9.210;2023-04-01T18:15:31;10.40;99.90
46335;DHT22;32051;48.882;9.210;2023-04-01T18:21:45;10.20;99.90
46335;DHT22;32051;48.882;9.210;2023-04-01T18:27:04;10.10;99.90
46335;DHT22;32051;48.882;9.210;2023-04-01T18:29:40;10.10;99.90
46335;DHT22;32051;48.882;9.210;2023-04-01T18:35:24;10.00;99.90
46335;DHT22;32051;48.882;9.210;2023-04-01T18:38:16;10.00;99.90
46335;DHT22;32051;48.882;9.210;2023-04-01T18:41:10;9.90;99.90
46335;DHT22;32051;48.882;9.210;2023-04-01T18:49:06;9.70;99.90
46335;DHT22;32051;48.882;9.210;2023-04-01T18:51:45;9.70;99.90
46335;DHT22;32051;48.882;9.210;2023-04-01T18:56:44;9.60;99.90
46335;DHT22;32051;48.882;9.210;2023-04-01T18:59:50;9.50;99.90
46335;DHT22;32051;48.882;9.210;2023-04-01T19:03:20;9.50;99.90
46335;DHT22;32051;48.882;9.210;2023-04-01T19:05:33;9.50;99.90
46335;DHT22;32051;48.882;9.210;2023-04-01T19:16:33;9.50;99.90
46335;DHT22;32051;48.882;9.210;2023-04-01T19:19:02;9.40;99.90
46335;DHT22;32051;48.882;9.210;2023-04-01T19:21:43;9.40;99.90
46335;DHT22;32051;48.882;9.210;2023-04-01T19:32:30;9.10;99.90
46335;DHT22;32051;48.882;9.210;2023-04-01T19:40:48;9.00;99.90
46335;DHT22;32051;48.882;9.210;2023-04-01T19:52:09;8.80;99.90
46335;DHT22;32051;48.882;9.210;2023-04-01T19:54:53;8.70;99.90
46335;DHT22;32051;48.882;9.210;2023-04-01T20:00:18;8.60;99.90
46335;DHT22;32051;48.882;9.210;2023-04-01T20:03:04;8.60;99.90
46335;DHT22;32051;48.882;9.210;2023-04-01T20:05:50;8.60;99.90
46335;DHT22;32051;48.882;9.210;2023-04-01T20:14:13;8.70;99.90
46335;DHT22;32051;48.882;9.210;2023-04-01T20:16:53;8.70;99.90
46335;DHT22;32051;48.882;9.210;2023-04-01T20:19:41;8.80;99.90
46335;DHT22;32051;48.882;9.210;2023-04-01T20:24:52;8.90;99.90
46335;DHT22;32051;48.882;9.210;2023-04-01T20:27:30;8.90;99.90
46335;DHT22;32051;48.882;9.210;2023-04-01T20:44:09;9.10;99.90
46335;DHT22;32051;48.882;9.210;2023-04-01T20:49:20;9.20;99.90
46335;DHT22;32051;48.882;9.210;2023-04-01T20:55:27;9.20;99.90
46335;DHT22;32051;48.882;9.210;2023-04-01T20:58:06;9.20;99.90
46335;DHT22;32051;48.882;9.210;2023-04-01T21:17:22;9.20;99.90
46335;DHT22;32051;48.882;9.210;2023-04-01T21:28:05;9.20;99.90
46335;DHT22;32051;48.882;9.210;2023-04-01T21:44:15;9.20;99.90
46335;DHT22;32051;48.882;9.210;2023-04-01T21:50:18;9.20;99.90
46335;DHT22;32051;48.882;9.210;2023-04-01T22:06:34;9.20;99.90
46335;DHT22;32051;48.882;9.210;2023-04-01T22:09:23;9.20;99.90
46335;DHT22;32051;48.882;9.210;2023-04-01T22:12:13;9.20;99.90
46335;DHT22;32051;48.882;9.210;2023-04-01T22:14:47;9.20;99.90
46335;DHT22;32051;48.882;9.210;2023-04-01T22:17:38;9.30;99.90
46335;DHT22;32051;48.882;9.210;2023-04-01T22:28:00;9.20;99.90
46335;DHT22;32051;48.882;9.210;2023-04-01T22:30:36;9.20;99.90
46335;DHT22;32051;48.882;9.210;2023-04-01T22:33:18;9.20;99.90
46335;DHT22;32051;48.882;9.210;2023-04-01T22:38:40;9.20;99.90
46335;DHT22;32051;48.882;9.210;2023-04-01T22:41:33;9.20;99.90
46335;DHT22;32051;48.882;9.210;2023-04-01T22:44:01;9.20;99.90
46335;DHT22;32051;48.882;9.210;2023-04-01T22:49:12;9.10;99.90
46335;DHT22;32051;48.882;9.210;2023-04-01T22:51:55;9.20;99.90
46335;DHT22;32051;48.882;9.210;2023-04-01T22:54:41;9.20;99.90
46335;DHT22;32051;48.882;9.210;2023-04-01T22:57:31;9.10;99.90
46335;DHT22;32051;48.882;9.210;2023-04-01T23:00:16;9.10;99.90
46335;DHT22;32051;48.882;9.210;2023-04-01T23:03:09;9.10;99.90
46335;DHT22;32051;48.882;9.210;2023-04-01T23:05:40;9.10;99.90
46335;DHT22;32051;48.882;9.210;2023-04-01T23:10:57;9.20;99.90
46335;DHT22;32051;48.882;9.210;2023-04-01T23:13:31;9.20;99.90
46335;DHT22;32051;48.882;9.210;2023-04-01T23:15:59;9.20;99.90
46335;DHT22;32051;48.882;9.210;2023-04-01T23:18:43;9.10;99.90
46335;DHT22;32051;48.882;9.210;2023-04-01T23:21:28;9.20;99.90
46335;DHT22;32051;48.882;9.210;2023-04-01T23:29:30;9.20;99.90
46335;DHT22;32051;48.882;9.210;2023-04-01T23:32:01;9.10;99.90
46335;DHT22;32051;48.882;9.210;2023-04-01T23:34:30;9.10;99.90
46335;DHT22;32051;48.882;9.210;2023-04-01T23:37:00;9.10;99.90
46335;DHT22;32051;48.882;9.210;2023-04-01T23:39:31;9.20;99.90
46335;DHT22;32051;48.882;9.210;2023-04-01T23:42:17;9.10;99.90
46335;DHT22;32051;48.882;9.210;2023-04-01T23:44:45;9.10;99.90
46335;DHT22;32051;48.882;9.210;2023-04-01T23:47:16;9.10;99.90
46335;DHT22;32051;48.882;9.210;2023-04-01T23:49:48;9.10;99.90
46335;DHT22;32051;48.882;9.210;2023-04-01T23:52:19;9.10;99.90
46335;DHT22;32051;48.882;9.210;2023-04-01T23:54:57;9.10;99.90
46335;DHT22;32051;48.882;9.210;2023-04-01T23:57:33;9.10;99.90
